Flight Track Log - Related Links

Times and Time Zones

All times are in EDT time to prevent confusion due to time zone crossing. See the GJS3618 flight status page for this flight to view local times or setup timezone preferences in your user account.

Time Position Orientation Groundspeed Altitude Reporting Facility
EDT Latitude Longitude Course Direction KTS MPH feet Rate Location/Type
09:07AM 42.0000 -87.9333 360° North 144 166 1,900  Level Chicago TRACON
09:08AM 42.0333 -87.9333 360° North 216 249 4,000 2,254 Climbing Chicago TRACON
09:10AM 42.1017 -87.7556 63° Northeast 302 348 8,700 2,557 Climbing Chicago Center
09:11AM 42.1314 -87.6394 71° East 323 372 11,800 2,878 Climbing Chicago Center
09:12AM 42.1706 -87.4864 71° East 357 411 14,600 2,732 Climbing Chicago Center
09:13AM 42.2056 -87.3506 71° East 379 436 17,400 2,419 Climbing Chicago Center
09:14AM 42.2408 -87.2139 71° East 386 444 19,600 1,742 Climbing Chicago Center
09:15AM 42.2772 -87.0689 71° East 405 466 21,000 1,210 Climbing Chicago Center
09:16AM 42.2858 -86.8944 86° East 456 525 22,100 1,452 Climbing Chicago Center
09:17AM 42.2925 -86.7164 87° East 475 547 24,000 1,707 Climbing Chicago Center
09:18AM 42.3000 -86.5172 87° East 488 562 25,600 1,366 Climbing Chicago Center
09:19AM 42.3069 -86.3392 87° East 503 579 26,800 1,500 Climbing Chicago Center
09:20AM 42.3153 -86.1111 87° East 510 587 28,700 1,452 Climbing Chicago Center
09:21AM 42.3133 -85.9186 91° East 516 594 29,800 1,210 Climbing Chicago Center
09:22AM 42.3108 -85.7242 91° East 521 600 31,200 1,403 Climbing Chicago Center
09:23AM 42.3094 -85.5292 90° East 523 602 32,700 1,452 Climbing Chicago Center
09:24AM 42.3061 -85.3364 91° East 519 597 34,200 1,568 Climbing Chicago Center
09:25AM 42.3081 -85.2278 89° East 530 610 35,000 977 Climbing Cleveland Center
09:26AM 42.3031 -85.0392 92° East 517 595 35,600 700 Climbing Cleveland Center
09:27AM 42.2958 -84.8394 93° East 517 595 36,400 700 Climbing Cleveland Center
09:28AM 42.2933 -84.6819 91° East 526 605 37,000 300 Climbing Cleveland Center
09:29AM 42.2881 -84.4708 92° East 520 598 37,000  Level Cleveland Center
09:30AM 42.3111 -84.2758 81° East 515 593 37,000  Level Cleveland Center
09:31AM 42.3403 -84.0808 78° East 515 593 37,000  Level Cleveland Center
09:32AM 42.3689 -83.8883 79° East 521 600 37,000  Level Cleveland Center
09:33AM 42.3953 -83.6928 80° East 521 600 37,000  Level Cleveland Center
09:34AM 42.4128 -83.4969 83° East 521 600 37,000  Level Cleveland Center
09:35AM 42.4178 -83.3003 88° East 521 600 37,000  Level Cleveland Center
09:36AM 42.4269 -83.0783 87° East 521 600 37,000  Level Cleveland Center
09:37AM 42.4414 -82.8819 84° East 521 600 37,000  Level Cleveland Center
09:38AM 42.4556 -82.6853 84° East 526 605 37,000  Level Cleveland Center
09:39AM 42.4694 -82.4917 84° East 526 605 37,000  Level Cleveland Center
09:40AM 42.4808 -82.3006 85° East 512 589 37,000  Level Cleveland Center
09:41AM 42.4958 -82.1067 84° East 512 589 37,000  Level Cleveland Center
09:42AM 42.5067 -81.9153 86° East 512 589 37,000  Level Cleveland Center
09:43AM 42.5233 -81.7156 83° East 518 596 37,000  Level Cleveland Center
09:44AM 42.5333 -81.5439 85° East 518 596 37,000  Level Cleveland Center
09:45AM 42.5472 -81.3414 85° East 519 597 37,000  Level Cleveland Center
09:46AM 42.5589 -81.1497 85° East 519 597 37,000  Level Cleveland Center
09:47AM 42.5700 -80.9525 86° East 519 597 37,000  Level Cleveland Center
09:48AM 42.5789 -80.7553 86° East 519 597 37,000  Level Cleveland Center
09:49AM 42.5894 -80.5436 86° East 514 592 37,000  Level Cleveland Center
09:50AM 42.5997 -80.3492 86° East 519 597 37,000  Level Cleveland Center
09:51AM 42.6094 -80.1544 86° East 519 597 37,000  Level Cleveland Center
09:52AM 42.6172 -79.9964 86° East 520 598 37,000  Level Cleveland Center
09:53AM 42.6306 -79.7817 85° East 520 598 37,000  Level Cleveland Center
09:54AM 42.6394 -79.5842 86° East 520 598 37,000  Level Cleveland Center
09:55AM 42.6478 -79.3864 87° East 520 598 37,000  Level Cleveland Center
09:56AM 42.6581 -79.1858 86° East 520 598 37,000  Level Cleveland Center
09:57AM 42.6639 -78.9850 88° East 520 598 37,000  Level Cleveland Center
09:58AM 42.6733 -78.7844 86° East 525 604 37,000 -400 Level Cleveland Center
09:59AM 42.6786 -78.5864 88° East 525 604 36,200 -1,000 Descending Cleveland Center
10:00AM 42.6875 -78.3914 86° East 525 604 35,000 -600 Descending Cleveland Center
10:01AM 42.6919 -78.1961 88° East 515 593 35,000  Level Cleveland Center
10:02AM 42.6981 -77.9983 88° East 515 593 35,000  Level Cleveland Center
10:03AM 42.7061 -77.8086 87° East 515 593 35,000 -200 Level Cleveland Center
10:04AM 42.7097 -77.6133 88° East 515 593 34,600 -809 Descending Cleveland Center
10:06AM 42.7194 -77.2031 88° East 520 598 32,600 -1,006 Descending Boston Center
10:07AM 42.7233 -77.0081 88° East 509 586 31,600 -984 Descending Boston Center
10:08AM 42.7289 -76.8161 88° East 509 586 30,600 -984 Descending Boston Center
10:09AM 42.7300 -76.6211 89° East 509 586 29,600 -807 Descending Boston Center
10:10AM 42.7369 -76.4264 87° East 515 593 29,000 -305 Descending Boston Center
10:11AM 42.7378 -76.2794 90° East 505 581 29,000 -850 Level Boston Center
10:12AM 42.7406 -76.0731 89° East 493 567 27,300 -1,866 Descending Boston Center
10:13AM 42.7442 -75.8894 88° East 493 567 25,300 -1,916 Descending Boston Center
10:14AM 42.7450 -75.7142 90° East 479 551 23,500 -1,750 Descending Boston Center
10:15AM 42.7478 -75.5475 89° East 456 525 21,800 -1,672 Descending Boston Center
10:16AM 42.7478 -75.3836 90° East 441 507 20,100 -1,672 Descending Boston Center
10:17AM 42.7561 -75.2228 86° East 430 495 18,400 -1,624 Descending Boston Center
10:18AM 42.7922 -75.0178 76° East 434 499 16,500 -1,525 Descending Boston Center
10:19AM 42.8153 -74.9197 72° East 418 481 15,400 -1,600 Descending Boston Center
10:19AM 42.8228 -74.8661 79° East 411 473 14,900 -1,900 Descending Boston Center
10:20AM 42.8436 -74.7564 75° East 407 468 13,500 -1,600 Descending Boston Center
10:20AM 42.8506 -74.7200 75° East 400 460 13,300 -1,475 Descending Boston Center
10:21AM 42.8694 -74.6158 76° East 390 449 12,000 -1,612 Descending Boston Center
10:21AM 42.8808 -74.5653 73° East 377 434 11,500 -1,100 Descending Boston Center
10:22AM 42.8967 -74.4919 74° East 378 435 10,900 -500 Descending Boston Center
10:22AM 42.9061 -74.4300 78° East 366 421 11,000 -689 Climbing Boston Center
10:23AM 42.9094 -74.3508 87° East 351 404 10,200 -1,574 Descending Boston Center
10:23AM 42.9103 -74.3053 89° East 314 361 9,400 -1,600 Descending Boston Center
10:24AM 42.9114 -74.2431 89° East 322 371 8,600 -1,826 Descending Boston Center
10:24AM 42.9167 -74.1753 84° East 310 357 7,300 -2,600 Descending Boston Center
10:25AM 42.9153 -74.1128 92° East 311 358 6,000 -2,262 Descending Boston Center
10:25AM 42.9203 -74.0592 83° East 314 361 5,000 -1,862 Descending Boston Center
10:26AM 42.9211 -73.9967 89° East 306 352 4,200 -1,700 Descending Boston Center
10:26AM 42.9239 -73.9458 86° East 291 335 3,300 -1,180 Descending Boston Center
10:27AM 42.9247 -73.8919 89° East 286 329 3,000 -295 Descending Boston Center
10:27AM 42.9211 -73.8492 97° East 216 249 3,000 -700 Level Boston Center
10:28AM 42.9047 -73.8233 131° Southeast 222 255 2,300 -1,273 Descending Boston Center
10:28AM 42.8797 -73.8142 165° South 140 161 1,600 -700 Descending Boston Center
10:29AM 42.8714 -73.8142 180° South 151 174 1,600  Level Boston Center
10:29AM 42.8339 -73.8133 179° South 134 154 1,600 -226 Level Boston Center
10:30AM 42.8006 -73.8097 175° South 108 124 1,200 -545 Descending Boston Center
10:31AM 42.7694 -73.8089 179° South 119 137 500 -689 Descending Boston Center
10:35AM 42.7491 -73.8020 144° Southeast  Level Estimated
10:42AM 42.7491 -73.8020 144° Southeast  Level Estimated

Login

Don't have an account? Register now (free) for customized features, flight alerts, and more!